Etusivu
METAR-TAF:

METAR-TAF

Lentoasemat :

La Tontoutan kansainvälinen lentoasema

Nouméa / La Tontouta, Uusi-Kaledonia

Leveyspiiri: 22-01S, Pituuspiiri: 166-13E, korkeus merenpinnasta: 16 m

Tämänhetkinen sää

Tämä raportti tehtiin 20 minuuttia sitten, kello 00.30 UTC
Tuuli 6 kn etelästä/lounaasta
Lämpötila 24°C
Kosteus 50%
Ilmanpaine 1015 hPa
Näkyvyys 10 km tai enemmän
ei pilviä alle 1500 m:ssä eikä cumulonimbus-pilviä

METAR: NWWW 220030Z AUTO 21006KT CAVOK 24/13 Q1015 NOSIG

Aika: 11:50 (00:50 UTC)

Sääennuste

Tämä raportti tehtiin 1 tunti ja 50 minuuttia sitten, kello 23.00 UTC
Ennuste voimassa 22. päivästä klo 00 UTC - 22. päivään klo 24 UTC
Tuuli 8 kn lounaasta
Näkyvyys 10 km tai enemmän
Muutamia pilviä 3000 ft:n korkeudessa
Tulossa
22. päivästä klo 06 UTC - 22. päivään klo 08 UTC
Tuuli 2 kn eri suunnista

TAF: NWWW 212300Z 2200/2224 22008KT 9999 FEW030 BECMG 2206/2208 VRB02KT

Säähavainnot ja -ennusteet yli 4000 lentoasemalta (METAR- ja TAF-raportit).

Käytössä olevat sääasemat on merkitty karttaan keltaisilla ja punaisilla pisteillä.

Aseta hiiri pisteen päälle nähdäksesi sääaseman nimen.

Klikkaa sitten nähdäksesi säähavainnot ja -ennusteet.

Kartan vaihtaminen: klikkaa mustalla rastilla varustettuja vihreitä pisteitä, niin voit zoomata sisään; viivalla varustettua vihreää pistettä, niin voit zoomata ulos tai vihreitä nuolia, niin pääset viereisille kartoille.


METAR-TAF: